DEN weather

Denver International Airport
Denver, Colorado, United States

Public forecast

Using degrees Fahrenheit for public forecast. Weather courtesy of forecast.io.

METAR (pilot weather report)

Retrieved 2018/08/20 02:53 UTC (46 minutes ago):

KDEN 200253Z 02012KT 10SM FEW080 SCT110 SCT220 16/09 A3027 RMK AO2 SLP199 T01560089 53014 $

TAF (pilot weather forecast)

Forecast is more than 12 hours old.

Retrieved 2018/08/19 00:24 UTC (1 day ago):

TAF KDEN 192321Z 2000/2106 02018G28KT P6SM SCT070 BKN100 FM200100 02010KT P6SM FEW070 SCT110 FM200300 33006KT P6SM FEW110 FM200800 22007KT P6SM SKC FM201600 10009KT P6SM FEW100 FM202300 12012KT P6SM SCT080 BKN120